ESN weather

Easton Newnam Field
Easton, Maryland, United States

Public forecast

Using degrees Fahrenheit for public forecast. Weather courtesy of forecast.io.

METAR (pilot weather report)

Retrieved 2019/09/22 09:40 UTC (0 seconds ago):

KESN 220940Z AUTO 14003KT 10SM CLR 20/20 A3019 RMK AO2 T02000195

TAF (pilot weather forecast)

Closest forecast is Dover Air Force Base, 34.3 nm (63.5 km) NE. Retrieved 2019/09/22 08:25 UTC (1 hour ago):

TAF KDOV 220803Z 2208/2314 21006KT 9999 SCT040 QNH3015INS TEMPO 2209/2212 6000 BR BECMG 2214/2215 20009KT 9999 BKN050 QNH3005INS BECMG 2221/2222 19009KT 9999 FEW050 QNH3001INS BECMG 2305/2306 22010G15KT 9999 SCT050 QNH2996INS TX30/2220Z TN17/2210Z